createdAt,value
2023-04-21T00:00:26.041Z,8.26
2023-04-21T00:02:53.747Z,8.24
2023-04-21T00:05:21.584Z,8.27
2023-04-21T00:07:49.376Z,8.26
2023-04-21T00:10:16.993Z,8.25
2023-04-21T00:12:44.483Z,8.23
2023-04-21T00:15:12.826Z,8.23
2023-04-21T00:17:40.777Z,8.21
2023-04-21T00:20:10.720Z,8.21
2023-04-21T00:22:38.612Z,8.12
2023-04-21T00:25:06.973Z,8.04
2023-04-21T00:27:34.824Z,8.08
2023-04-21T00:30:02.684Z,8.02
2023-04-21T00:32:31.062Z,7.92
2023-04-21T00:34:58.926Z,7.86
2023-04-21T00:37:31.100Z,7.84
2023-04-21T00:40:00.366Z,7.86
2023-04-21T00:42:27.847Z,7.89
2023-04-21T00:44:55.560Z,7.90
2023-04-21T00:47:23.215Z,7.86
2023-04-21T00:49:52.425Z,7.74
2023-04-21T00:52:20.027Z,7.71
2023-04-21T00:54:47.543Z,7.68
2023-04-21T00:57:15.357Z,7.75
2023-04-21T00:59:43.503Z,7.71
2023-04-21T01:02:11.334Z,7.64
2023-04-21T01:04:40.268Z,7.55
2023-04-21T01:07:08.697Z,7.57
2023-04-21T01:09:36.509Z,7.58
2023-04-21T01:12:09.388Z,7.64
2023-04-21T01:14:38.872Z,7.61
2023-04-21T01:17:07.938Z,7.59
2023-04-21T01:19:40.054Z,7.53
2023-04-21T01:22:12.375Z,7.48
2023-04-21T01:24:45.725Z,7.48
2023-04-21T01:27:16.561Z,7.45
2023-04-21T01:29:46.907Z,7.39
2023-04-21T01:32:18.336Z,7.49
2023-04-21T01:34:46.816Z,7.49
2023-04-21T01:37:17.418Z,7.43
2023-04-21T01:39:48.262Z,7.49
2023-04-21T01:42:16.033Z,7.40
2023-04-21T01:44:43.896Z,7.37
2023-04-21T01:47:11.602Z,7.39
2023-04-21T01:49:39.381Z,7.36
2023-04-21T01:52:07.123Z,7.33
2023-04-21T01:54:35.426Z,7.33
2023-04-21T01:57:03.722Z,7.38
2023-04-21T01:59:31.496Z,7.33
2023-04-21T02:01:59.288Z,7.26
2023-04-21T02:04:26.953Z,7.28
2023-04-21T02:06:54.511Z,7.26
2023-04-21T02:09:22.394Z,7.27
2023-04-21T02:11:50.306Z,7.26
2023-04-21T02:14:17.969Z,7.18
2023-04-21T02:16:46.149Z,7.27
2023-04-21T02:19:13.873Z,7.25
2023-04-21T02:21:41.405Z,7.27
2023-04-21T02:24:09.010Z,7.23
2023-04-21T02:26:36.479Z,7.16
2023-04-21T02:29:04.008Z,7.05
2023-04-21T02:31:31.582Z,7.11
2023-04-21T02:34:00.210Z,7.13
2023-04-21T02:36:27.865Z,7.06
2023-04-21T02:38:55.316Z,7.15
2023-04-21T02:41:23.379Z,7.05
2023-04-21T02:43:50.934Z,7.07
2023-04-21T02:46:18.710Z,7.01
2023-04-21T02:48:46.468Z,6.98
2023-04-21T02:51:14.733Z,6.98
2023-04-21T02:53:43.060Z,6.96
2023-04-21T02:56:10.650Z,6.97
2023-04-21T02:58:38.469Z,7.01
2023-04-21T03:01:06.550Z,7.01
2023-04-21T03:03:34.763Z,7.01
2023-04-21T03:06:04.298Z,7.02
2023-04-21T03:08:32.509Z,6.98
2023-04-21T03:11:01.641Z,6.93
2023-04-21T03:13:29.493Z,6.96
2023-04-21T03:15:57.599Z,6.99
2023-04-21T03:18:25.864Z,6.97
2023-04-21T03:20:59.906Z,6.94
2023-04-21T03:23:27.640Z,7.03
2023-04-21T03:25:55.354Z,7.06
2023-04-21T03:28:22.828Z,7.12
2023-04-21T03:30:50.326Z,7.13
2023-04-21T03:33:17.804Z,7.04
2023-04-21T03:35:45.371Z,7.01
2023-04-21T03:38:12.834Z,7.05
2023-04-21T03:40:40.350Z,7.17
2023-04-21T03:43:08.142Z,7.26
2023-04-21T03:45:36.257Z,7.26
2023-04-21T03:48:04.198Z,7.28
2023-04-21T03:50:32.149Z,7.19
2023-04-21T03:52:59.974Z,7.15
2023-04-21T03:55:27.646Z,7.16
2023-04-21T03:57:55.530Z,7.15
2023-04-21T04:00:23.410Z,7.20
2023-04-21T04:02:51.104Z,7.30
2023-04-21T04:05:18.741Z,7.32
2023-04-21T04:07:46.546Z,7.34
2023-04-21T04:10:14.365Z,7.31
2023-04-21T04:12:41.815Z,7.35
2023-04-21T04:15:09.563Z,7.38
2023-04-21T04:17:37.031Z,7.42
2023-04-21T04:20:08.384Z,7.47
2023-04-21T04:22:36.258Z,7.48
2023-04-21T04:25:05.401Z,7.55
2023-04-21T04:27:33.269Z,7.58
2023-04-21T04:30:03.268Z,7.58
2023-04-21T04:32:33.648Z,7.59
2023-04-21T04:35:01.418Z,7.59
2023-04-21T04:37:29.198Z,7.62
2023-04-21T04:39:57.025Z,7.65
2023-04-21T04:42:25.265Z,7.65
2023-04-21T04:44:56.065Z,7.70
2023-04-21T04:47:29.056Z,7.68
2023-04-21T04:49:56.972Z,7.73
2023-04-21T04:52:24.467Z,7.81
2023-04-21T04:54:51.982Z,7.94
2023-04-21T04:57:19.476Z,8.16
2023-04-21T04:59:47.142Z,8.34
2023-04-21T05:02:15.095Z,8.44
2023-04-21T05:04:42.935Z,8.52
2023-04-21T05:07:10.795Z,8.62
2023-04-21T05:09:38.684Z,8.72
2023-04-21T05:12:06.716Z,8.82
2023-04-21T05:14:34.325Z,8.91
2023-04-21T05:17:01.870Z,9.04
2023-04-21T05:19:29.386Z,9.13
2023-04-21T05:22:01.289Z,9.36
2023-04-21T05:24:29.163Z,9.55
2023-04-21T05:26:57.879Z,9.74
2023-04-21T05:29:25.670Z,9.84
2023-04-21T05:31:53.499Z,9.85
2023-04-21T05:34:21.747Z,9.97
2023-04-21T05:36:49.466Z,10.08
2023-04-21T05:39:18.062Z,10.21
2023-04-21T05:41:46.279Z,10.39
2023-04-21T05:44:18.039Z,10.54
2023-04-21T05:46:45.938Z,10.69
2023-04-21T05:49:13.525Z,10.78
2023-04-21T05:51:41.698Z,10.90
2023-04-21T05:54:09.404Z,11.07
2023-04-21T05:56:36.888Z,11.20
2023-04-21T05:59:04.447Z,11.33
2023-04-21T06:01:33.209Z,11.40
2023-04-21T06:04:01.064Z,11.42
2023-04-21T06:06:28.807Z,11.55
2023-04-21T06:08:56.347Z,11.71
2023-04-21T06:11:24.013Z,11.96
2023-04-21T06:13:53.785Z,12.21
2023-04-21T06:16:21.339Z,12.60
2023-04-21T06:18:49.211Z,12.94
2023-04-21T06:21:17.001Z,13.33
2023-04-21T06:23:44.901Z,13.69
2023-04-21T06:26:13.802Z,14.88
2023-04-21T06:28:41.416Z,16.49
2023-04-21T06:31:15.264Z,20.33
2023-04-21T06:33:42.992Z,22.67
2023-04-21T06:36:10.794Z,22.33
2023-04-21T06:38:40.083Z,20.57
2023-04-21T06:41:07.871Z,18.25
2023-04-21T06:43:35.835Z,17.14
2023-04-21T06:46:03.746Z,18.29
2023-04-21T06:48:31.879Z,20.58
2023-04-21T06:51:00.570Z,18.72
2023-04-21T06:53:28.240Z,18.00
2023-04-21T06:55:56.372Z,20.02
2023-04-21T06:58:24.089Z,23.54
2023-04-21T07:00:51.918Z,24.20
2023-04-21T07:03:19.883Z,25.31
2023-04-21T07:05:47.839Z,25.66
2023-04-21T07:08:15.644Z,25.44
2023-04-21T07:10:43.388Z,22.81
2023-04-21T07:13:11.411Z,21.21
2023-04-21T07:15:38.954Z,22.45
2023-04-21T07:18:06.737Z,25.56
2023-04-21T07:20:34.246Z,26.72
2023-04-21T07:23:01.793Z,27.10
2023-04-21T07:25:29.443Z,27.88
2023-04-21T07:27:57.234Z,28.07
2023-04-21T07:30:25.244Z,28.69
2023-04-21T07:32:53.116Z,28.37
2023-04-21T07:35:21.556Z,28.59
2023-04-21T07:37:49.309Z,27.88
2023-04-21T07:40:17.376Z,28.39
2023-04-21T07:42:45.210Z,28.19
2023-04-21T07:45:12.888Z,28.83
2023-04-21T07:47:40.917Z,28.81
2023-04-21T07:50:09.386Z,28.83
2023-04-21T07:52:37.244Z,28.61
2023-04-21T07:55:05.336Z,28.79
2023-04-21T07:57:34.605Z,29.04
2023-04-21T08:00:02.186Z,28.76
2023-04-21T08:02:30.073Z,28.07
2023-04-21T08:04:57.802Z,27.38
2023-04-21T08:07:25.478Z,28.33
2023-04-21T08:09:53.543Z,27.53
2023-04-21T08:12:21.115Z,27.79
2023-04-21T08:14:48.785Z,26.63
2023-04-21T08:17:16.729Z,24.84
2023-04-21T08:19:44.547Z,22.68
2023-04-21T08:22:12.345Z,21.02
2023-04-21T08:24:40.196Z,19.77
2023-04-21T08:27:07.742Z,18.94
2023-04-21T08:29:35.712Z,18.33
2023-04-21T08:32:03.689Z,17.78
2023-04-21T08:34:31.566Z,17.49
2023-04-21T08:36:59.283Z,17.28
2023-04-21T08:39:26.981Z,16.96
2023-04-21T08:41:56.510Z,16.91
2023-04-21T08:44:24.402Z,16.75
2023-04-21T08:46:55.724Z,16.60
2023-04-21T08:49:24.530Z,16.51
2023-04-21T08:51:52.305Z,16.38
2023-04-21T08:54:20.929Z,16.35
2023-04-21T08:56:49.504Z,16.28
2023-04-21T08:59:17.490Z,16.15
2023-04-21T09:02:07.191Z,16.06
2023-04-21T09:04:35.077Z,16.01
2023-04-21T09:07:03.032Z,15.95
2023-04-21T09:09:30.859Z,15.78
2023-04-21T09:11:59.434Z,15.66
2023-04-21T09:14:33.970Z,15.57
2023-04-21T09:17:04.366Z,15.50
2023-04-21T09:19:34.787Z,15.39
2023-04-21T09:22:02.870Z,15.31
2023-04-21T09:24:30.890Z,15.24
2023-04-21T09:26:58.513Z,15.16
2023-04-21T09:29:26.428Z,15.32
2023-04-21T09:31:53.950Z,15.31
2023-04-21T09:34:27.396Z,15.38
2023-04-21T09:37:05.200Z,15.41
2023-04-21T09:39:46.377Z,15.34
2023-04-21T09:42:28.232Z,15.31
2023-04-21T09:45:06.134Z,15.35
2023-04-21T09:47:49.356Z,15.22
2023-04-21T09:50:22.932Z,15.09
2023-04-21T09:53:08.017Z,15.09
2023-04-21T09:55:36.313Z,15.00
2023-04-21T09:58:07.190Z,14.90
2023-04-21T10:00:39.434Z,14.88
2023-04-21T10:03:11.464Z,14.83
2023-04-21T10:05:42.093Z,14.93
2023-04-21T10:08:12.105Z,14.84
2023-04-21T10:10:40.130Z,14.76
2023-04-21T10:13:14.635Z,14.73
2023-04-21T10:15:42.278Z,14.70
2023-04-21T10:18:19.296Z,14.57
2023-04-21T10:21:02.838Z,14.51
2023-04-21T10:23:37.564Z,14.56
2023-04-21T10:26:13.083Z,14.43
2023-04-21T10:28:54.862Z,14.39
2023-04-21T10:31:35.855Z,14.34
2023-04-21T10:34:06.272Z,14.20
2023-04-21T10:36:48.721Z,14.22
2023-04-21T10:39:44.545Z,14.09
2023-04-21T10:42:19.886Z,13.97
2023-04-21T10:44:56.152Z,13.93
2023-04-21T10:47:38.676Z,13.99
2023-04-21T10:50:28.715Z,13.99
2023-04-21T10:52:59.515Z,14.00
2023-04-21T10:55:29.100Z,14.06
2023-04-21T10:57:57.227Z,14.16
2023-04-21T11:00:25.492Z,14.03
2023-04-21T11:02:56.063Z,13.97
2023-04-21T11:05:38.876Z,13.90
2023-04-21T11:08:14.728Z,13.96
2023-04-21T11:10:55.112Z,13.91
2023-04-21T11:13:25.883Z,13.88
2023-04-21T11:15:57.887Z,13.85
2023-04-21T11:18:44.452Z,13.83
2023-04-21T11:21:12.423Z,13.90
2023-04-21T11:23:41.548Z,13.91
2023-04-21T11:26:09.214Z,13.95
2023-04-21T11:28:37.110Z,14.01
2023-04-21T11:31:05.465Z,13.93
2023-04-21T11:33:39.483Z,13.97
2023-04-21T11:36:07.753Z,13.99
2023-04-21T11:38:41.871Z,14.04
2023-04-21T11:41:10.732Z,13.90
2023-04-21T11:43:38.601Z,13.97
2023-04-21T11:46:37.296Z,13.84
2023-04-21T11:49:07.201Z,13.87
2023-04-21T11:51:38.784Z,13.74
2023-04-21T11:54:11.557Z,13.69
2023-04-21T11:56:46.517Z,13.66
2023-04-21T11:59:16.657Z,13.76
2023-04-21T12:01:50.663Z,13.86
2023-04-21T12:04:26.012Z,13.87
2023-04-21T12:07:03.378Z,13.85
2023-04-21T12:09:30.933Z,13.82
2023-04-21T12:11:59.113Z,13.75
2023-04-21T12:14:27.125Z,13.86
2023-04-21T12:16:56.236Z,14.01
2023-04-21T12:19:41.297Z,14.08
2023-04-21T12:22:14.597Z,14.12
2023-04-21T12:24:43.390Z,14.19
2023-04-21T12:27:11.606Z,14.24
2023-04-21T12:29:39.850Z,14.35
2023-04-21T12:32:09.456Z,14.43
2023-04-21T12:34:37.353Z,14.50
2023-04-21T12:37:05.129Z,14.57
2023-04-21T12:39:34.970Z,14.64
2023-04-21T12:42:02.865Z,14.70
2023-04-21T12:44:30.799Z,14.73
2023-04-21T12:46:58.499Z,14.79
2023-04-21T12:49:26.559Z,14.80
2023-04-21T12:51:54.118Z,14.75
2023-04-21T12:54:21.544Z,14.74
2023-04-21T12:56:49.170Z,14.77
2023-04-21T12:59:17.108Z,14.79
2023-04-21T13:01:45.049Z,14.79
2023-04-21T13:04:13.353Z,14.79
2023-04-21T13:06:41.491Z,14.80
2023-04-21T13:09:09.501Z,14.83
2023-04-21T13:11:37.347Z,14.82
2023-04-21T13:14:04.863Z,14.84
2023-04-21T13:16:32.530Z,14.83
2023-04-21T13:19:00.329Z,14.83
2023-04-21T13:21:28.072Z,14.83
2023-04-21T13:23:56.353Z,14.86
2023-04-21T13:26:23.962Z,14.84
2023-04-21T13:28:51.624Z,14.82
2023-04-21T13:31:19.308Z,14.81
2023-04-21T13:33:47.161Z,14.79
2023-04-21T13:36:15.078Z,14.79
2023-04-21T13:38:43.348Z,14.78
2023-04-21T13:41:11.264Z,14.77
2023-04-21T13:43:38.856Z,14.76
2023-04-21T13:46:06.503Z,14.77
2023-04-21T13:48:34.062Z,14.78
2023-04-21T13:51:01.635Z,14.77
2023-04-21T13:53:29.550Z,14.74
2023-04-21T13:55:58.389Z,14.75
2023-04-21T13:58:26.068Z,14.74
2023-04-21T14:00:53.897Z,14.72
2023-04-21T14:03:22.358Z,14.70
2023-04-21T14:05:49.980Z,14.67
2023-04-21T14:08:18.049Z,14.68
2023-04-21T14:10:45.740Z,14.70
2023-04-21T14:13:23.294Z,14.70
2023-04-21T14:16:01.032Z,14.69
2023-04-21T14:18:28.828Z,14.69
2023-04-21T14:20:56.296Z,14.69
2023-04-21T14:23:23.932Z,14.64
2023-04-21T14:25:53.089Z,14.58
2023-04-21T14:28:22.786Z,14.56
2023-04-21T14:30:50.539Z,14.54
2023-04-21T14:33:18.237Z,14.51
2023-04-21T14:35:46.077Z,14.48
2023-04-21T14:38:13.736Z,14.46
2023-04-21T14:40:41.195Z,14.46
2023-04-21T14:43:11.515Z,14.43
2023-04-21T14:45:41.154Z,14.37
2023-04-21T14:48:09.339Z,14.38
2023-04-21T14:50:37.350Z,14.33
2023-04-21T14:53:05.169Z,14.31
2023-04-21T14:55:33.562Z,14.31
2023-04-21T14:58:01.320Z,14.28
2023-04-21T15:00:31.856Z,14.26
2023-04-21T15:03:00.026Z,14.24
2023-04-21T15:05:27.960Z,14.23
2023-04-21T15:07:55.749Z,14.23
2023-04-21T15:10:23.607Z,14.23
2023-04-21T15:12:51.507Z,14.22
2023-04-21T15:15:19.428Z,14.14
2023-04-21T15:17:47.103Z,14.13
2023-04-21T15:20:14.853Z,14.09
2023-04-21T15:22:42.510Z,14.05
2023-04-21T15:25:10.489Z,14.06
2023-04-21T15:27:38.225Z,14.08
2023-04-21T15:30:06.935Z,14.09
2023-04-21T15:32:34.933Z,14.05
2023-04-21T15:35:02.561Z,14.00
2023-04-21T15:37:30.126Z,13.99
2023-04-21T15:39:58.031Z,13.97
2023-04-21T15:42:25.667Z,13.98
2023-04-21T15:44:53.811Z,13.95
2023-04-21T15:47:22.754Z,13.93
2023-04-21T15:49:50.893Z,13.90
2023-04-21T15:52:18.677Z,13.90
2023-04-21T15:54:46.645Z,13.86
2023-04-21T15:57:14.995Z,13.89
2023-04-21T15:59:42.739Z,13.83
2023-04-21T16:02:11.829Z,13.87
2023-04-21T16:04:40.358Z,13.82
2023-04-21T16:07:08.479Z,13.79
2023-04-21T16:09:36.597Z,13.76
2023-04-21T16:12:08.736Z,13.73
2023-04-21T16:14:51.250Z,13.70
2023-04-21T16:17:26.665Z,13.67
2023-04-21T16:19:54.698Z,13.70
2023-04-21T16:22:22.229Z,13.67
2023-04-21T16:24:50.003Z,13.70
2023-04-21T16:27:17.506Z,13.70
2023-04-21T16:29:45.246Z,13.69
2023-04-21T16:32:12.845Z,13.68
2023-04-21T16:34:41.605Z,13.59
2023-04-21T16:37:09.632Z,13.57
2023-04-21T16:39:38.369Z,13.56
2023-04-21T16:42:05.882Z,13.56
2023-04-21T16:44:33.458Z,13.54
2023-04-21T16:47:01.124Z,13.50
2023-04-21T16:49:30.341Z,13.44
2023-04-21T16:51:58.246Z,13.42
2023-04-21T16:54:26.106Z,13.36
2023-04-21T16:56:54.009Z,13.29
2023-04-21T16:59:23.709Z,13.25
2023-04-21T17:01:51.264Z,13.19
2023-04-21T17:04:19.035Z,13.21
2023-04-21T17:06:48.316Z,13.18
2023-04-21T17:09:16.159Z,13.11
2023-04-21T17:11:45.930Z,12.99
2023-04-21T17:14:13.907Z,12.90
2023-04-21T17:16:41.599Z,12.92
2023-04-21T17:19:09.753Z,12.86
2023-04-21T17:21:37.365Z,12.78
2023-04-21T17:24:04.952Z,12.77
2023-04-21T17:26:32.697Z,12.74
2023-04-21T17:29:00.457Z,12.74
2023-04-21T17:31:29.599Z,12.77
2023-04-21T17:33:57.394Z,12.68
2023-04-21T17:36:27.610Z,12.65
2023-04-21T17:38:59.144Z,12.57
2023-04-21T17:41:27.700Z,12.52
2023-04-21T17:43:55.301Z,12.52
2023-04-21T17:46:25.151Z,12.48
2023-04-21T17:48:53.760Z,12.47
2023-04-21T17:51:21.617Z,12.45
2023-04-21T17:53:49.993Z,12.40
2023-04-21T17:56:18.889Z,12.38
2023-04-21T17:58:46.925Z,12.36
2023-04-21T18:01:14.916Z,12.37
2023-04-21T18:03:43.807Z,12.23
2023-04-21T18:06:11.746Z,12.32
2023-04-21T18:08:39.306Z,12.21
2023-04-21T18:11:07.414Z,12.19
2023-04-21T18:13:35.230Z,12.02
2023-04-21T18:16:03.370Z,11.99
2023-04-21T18:18:31.344Z,11.88
2023-04-21T18:20:59.788Z,11.86
2023-04-21T18:23:27.713Z,11.80
2023-04-21T18:25:55.278Z,11.70
2023-04-21T18:28:22.894Z,11.70
2023-04-21T18:30:50.830Z,11.72
2023-04-21T18:33:18.773Z,11.71
2023-04-21T18:35:46.849Z,11.68
2023-04-21T18:38:14.389Z,11.74
2023-04-21T18:40:41.940Z,11.60
2023-04-21T18:43:10.737Z,11.69
2023-04-21T18:45:38.821Z,11.61
2023-04-21T18:48:06.516Z,11.63
2023-04-21T18:50:39.376Z,11.56
2023-04-21T18:53:08.586Z,11.46
2023-04-21T18:55:36.452Z,11.50
2023-04-21T18:58:04.315Z,11.41
2023-04-21T19:00:32.880Z,11.44
2023-04-21T19:03:01.171Z,11.34
2023-04-21T19:05:31.113Z,11.39
2023-04-21T19:07:59.149Z,11.33
2023-04-21T19:10:27.737Z,11.28
2023-04-21T19:12:55.811Z,11.28
2023-04-21T19:15:24.060Z,11.21
2023-04-21T19:17:52.004Z,11.23
2023-04-21T19:20:19.988Z,11.18
2023-04-21T19:22:48.917Z,11.25
2023-04-21T19:25:17.571Z,11.18
2023-04-21T19:27:46.389Z,11.04
2023-04-21T19:30:14.586Z,10.98
2023-04-21T19:32:43.125Z,10.90
2023-04-21T19:35:11.128Z,10.90
2023-04-21T19:37:39.391Z,10.90
2023-04-21T19:40:08.240Z,10.97
2023-04-21T19:42:37.361Z,10.93
2023-04-21T19:45:08.739Z,10.82
2023-04-21T19:47:36.357Z,10.94
2023-04-21T19:50:05.765Z,10.82
2023-04-21T19:52:34.036Z,10.86
2023-04-21T19:55:01.826Z,10.77
2023-04-21T19:57:29.283Z,10.67
2023-04-21T19:59:57.098Z,10.72
2023-04-21T20:02:26.253Z,10.68
2023-04-21T20:04:53.939Z,10.55
2023-04-21T20:07:22.570Z,10.58
2023-04-21T20:09:50.659Z,10.47
2023-04-21T20:12:18.834Z,10.48
2023-04-21T20:14:46.359Z,10.39
2023-04-21T20:17:14.147Z,10.32
2023-04-21T20:19:41.917Z,10.15
2023-04-21T20:22:09.756Z,10.10
2023-04-21T20:24:37.225Z,10.07
2023-04-21T20:27:08.540Z,10.12
2023-04-21T20:29:36.961Z,10.05
2023-04-21T20:32:05.037Z,10.00
2023-04-21T20:34:32.855Z,9.95
2023-04-21T20:37:00.735Z,9.99
2023-04-21T20:39:28.782Z,9.94
2023-04-21T20:42:11.904Z,9.85
2023-04-21T20:44:42.728Z,9.82
2023-04-21T20:47:12.082Z,9.87
2023-04-21T20:49:40.391Z,9.77
2023-04-21T20:52:09.231Z,9.80
2023-04-21T20:54:37.592Z,9.69
2023-04-21T20:57:07.392Z,9.61
2023-04-21T20:59:35.618Z,9.60
2023-04-21T21:02:04.231Z,9.55
2023-04-21T21:04:32.211Z,9.59
2023-04-21T21:07:01.366Z,9.61
2023-04-21T21:09:30.488Z,9.70
2023-04-21T21:11:58.383Z,9.65
2023-04-21T21:14:26.634Z,9.65
2023-04-21T21:16:55.333Z,9.69
2023-04-21T21:19:23.150Z,9.69
2023-04-21T21:21:50.996Z,9.66
2023-04-21T21:24:18.577Z,9.65
2023-04-21T21:26:46.196Z,9.66
2023-04-21T21:29:13.817Z,9.65
2023-04-21T21:31:41.318Z,9.59
2023-04-21T21:34:08.879Z,9.57
2023-04-21T21:36:36.787Z,9.52
2023-04-21T21:39:04.511Z,9.55
2023-04-21T21:41:32.403Z,9.62
2023-04-21T21:43:59.961Z,9.55
2023-04-21T21:46:27.511Z,9.40
2023-04-21T21:48:55.107Z,9.49
2023-04-21T21:51:22.975Z,9.43
2023-04-21T21:53:50.729Z,9.41
2023-04-21T21:56:18.472Z,9.34
2023-04-21T21:58:46.205Z,9.34
2023-04-21T22:01:17.922Z,9.31
2023-04-21T22:03:45.802Z,9.30
2023-04-21T22:06:14.903Z,9.23
2023-04-21T22:08:45.664Z,9.19
2023-04-21T22:11:13.414Z,9.08
2023-04-21T22:13:41.058Z,9.04
2023-04-21T22:16:08.645Z,9.02
2023-04-21T22:18:36.560Z,9.00
2023-04-21T22:21:04.626Z,8.90
2023-04-21T22:23:32.106Z,8.90
2023-04-21T22:25:59.734Z,9.04
2023-04-21T22:28:27.596Z,8.98
2023-04-21T22:30:56.064Z,8.88
2023-04-21T22:33:24.358Z,8.94
2023-04-21T22:35:51.883Z,8.97
2023-04-21T22:38:19.815Z,8.88
2023-04-21T22:40:47.688Z,8.90
2023-04-21T22:43:15.684Z,8.81
2023-04-21T22:45:43.610Z,8.83
2023-04-21T22:48:11.616Z,8.71
2023-04-21T22:50:39.494Z,8.69
2023-04-21T22:53:07.485Z,8.72
2023-04-21T22:55:35.624Z,8.69
2023-04-21T22:58:03.310Z,8.59
2023-04-21T23:00:30.880Z,8.58
2023-04-21T23:02:58.642Z,8.61
2023-04-21T23:05:26.398Z,8.55
2023-04-21T23:07:55.574Z,8.46
2023-04-21T23:10:23.210Z,8.43
2023-04-21T23:12:50.865Z,8.45
2023-04-21T23:15:18.472Z,8.46
2023-04-21T23:17:46.428Z,8.36
2023-04-21T23:20:15.373Z,8.41
2023-04-21T23:22:43.505Z,8.36
2023-04-21T23:25:11.095Z,8.32
2023-04-21T23:27:38.584Z,8.25
2023-04-21T23:30:07.223Z,8.30
2023-04-21T23:32:35.031Z,8.32
2023-04-21T23:35:02.618Z,8.29
2023-04-21T23:37:30.889Z,8.21
2023-04-21T23:39:58.897Z,8.22
2023-04-21T23:42:26.884Z,8.11
2023-04-21T23:44:54.923Z,8.17
2023-04-21T23:47:22.456Z,8.05
2023-04-21T23:49:50.528Z,8.05
2023-04-21T23:52:18.341Z,7.98
2023-04-21T23:54:46.337Z,8.02
2023-04-21T23:57:14.453Z,7.91
2023-04-21T23:59:42.671Z,7.91
